Time;durP1;ratioP1;P1;durP2;ratioP2;P2;SDS_P1;SDS_P2;PMS_P1;PMS_P2;Temp;Humidity;BMP_temperature;BMP_pressure;BME280_temperature;BME280_humidity;BME280_pressure;Samples;Min_cycle;Max_cycle;Signal;HPM_P1;HPM_P2
2021/09/12 00:01:23;;;;;;;10.02;7.35;;;20.20;99.90;;;;;;4181448;28;20379;-75
2021/09/12 00:03:24;;;;;;;8.68;7.40;;;20.20;99.90;;;;;;4183151;28;20028;-75
2021/09/12 00:05:24;;;;;;;9.30;7.10;;;20.20;99.90;;;;;;4183439;28;20056;-75
2021/09/12 00:07:25;;;;;;;9.80;7.25;;;20.20;99.90;;;;;;4168640;28;20037;-75
2021/09/12 00:09:25;;;;;;;10.13;8.27;;;20.20;99.90;;;;;;4181564;28;20029;-75
2021/09/12 00:11:26;;;;;;;10.02;8.15;;;20.10;99.90;;;;;;4186525;28;20626;-75
2021/09/12 00:13:27;;;;;;;10.77;7.85;;;20.10;99.90;;;;;;4175454;28;20079;-75
2021/09/12 00:15:27;;;;;;;10.07;7.65;;;20.10;99.90;;;;;;4179694;28;22957;-75
2021/09/12 00:17:28;;;;;;;9.25;7.82;;;20.10;99.90;;;;;;4180033;28;20878;-75
2021/09/12 00:19:29;;;;;;;12.15;8.73;;;20.10;99.90;;;;;;4177693;28;20487;-75
2021/09/12 00:21:29;;;;;;;10.38;8.02;;;20.10;99.90;;;;;;4185717;28;20021;-74
2021/09/12 00:23:30;;;;;;;9.75;7.70;;;20.00;99.90;;;;;;4181001;28;20033;-75
2021/09/12 00:25:30;;;;;;;10.43;7.60;;;20.00;99.90;;;;;;4186424;28;20036;-75
2021/09/12 00:27:31;;;;;;;10.13;8.07;;;20.00;99.90;;;;;;4180366;28;20021;-75
2021/09/12 00:29:33;;;;;;;9.05;7.15;;;20.00;99.90;;;;;;4182668;28;20051;-75
2021/09/12 00:31:33;;;;;;;11.98;9.00;;;20.00;99.90;;;;;;4184657;28;20060;-76
2021/09/12 00:33:34;;;;;;;11.13;8.38;;;20.00;99.90;;;;;;4180784;28;20029;-75
2021/09/12 00:35:35;;;;;;;12.10;8.18;;;20.00;99.90;;;;;;4180766;28;20021;-75
2021/09/12 00:37:37;;;;;;;9.35;8.35;;;20.00;99.90;;;;;;4184560;28;20465;-75
2021/09/12 00:39:37;;;;;;;9.07;7.93;;;20.00;99.90;;;;;;4181069;28;20040;-75
2021/09/12 00:41:41;;;;;;;11.02;8.80;;;20.00;99.90;;;;;;4177119;28;20500;-75
2021/09/12 00:43:41;;;;;;;10.68;8.85;;;20.00;99.90;;;;;;4184024;28;20029;-75
2021/09/12 00:45:42;;;;;;;8.98;8.00;;;19.90;99.90;;;;;;4183137;28;20067;-75
2021/09/12 00:47:45;;;;;;;12.35;9.05;;;19.90;99.90;;;;;;4175582;28;20033;-75
2021/09/12 00:49:46;;;;;;;10.52;8.10;;;19.90;99.90;;;;;;4181795;28;20077;-75
2021/09/12 00:51:48;;;;;;;12.27;8.75;;;19.90;99.90;;;;;;4183282;28;20456;-75
2021/09/12 00:53:51;;;;;;;11.55;8.95;;;19.80;99.90;;;;;;4185445;28;20033;-75
2021/09/12 00:55:53;;;;;;;13.27;8.68;;;19.90;99.90;;;;;;4181025;28;20085;-75
2021/09/12 00:57:56;;;;;;;10.02;8.38;;;19.80;99.90;;;;;;4175252;28;20036;-75
2021/09/12 00:59:58;;;;;;;14.13;8.40;;;19.80;99.90;;;;;;4173756;28;20123;-75
2021/09/12 01:01:59;;;;;;;12.90;8.52;;;19.80;99.90;;;;;;4175260;28;20032;-75
2021/09/12 01:04:00;;;;;;;10.68;8.23;;;19.80;99.90;;;;;;4175496;28;20041;-75
2021/09/12 01:06:01;;;;;;;11.55;8.52;;;19.90;99.90;;;;;;4175072;28;20040;-75
2021/09/12 01:08:02;;;;;;;10.82;7.90;;;19.80;99.90;;;;;;4175308;28;20120;-75
2021/09/12 01:10:03;;;;;;;14.95;9.07;;;19.80;99.90;;;;;;4173484;28;20061;-75
2021/09/12 01:12:06;;;;;;;13.07;8.15;;;19.90;99.90;;;;;;4173160;28;20056;-76
2021/09/12 01:14:07;;;;;;;;;;;19.80;99.90;;;;;;4172381;28;20032;-75
2021/09/12 01:16:11;;;;;;;11.38;8.80;;;19.80;99.90;;;;;;4175761;28;20325;-76
2021/09/12 01:18:12;;;;;;;13.00;8.63;;;19.80;99.90;;;;;;4175050;28;20025;-75
2021/09/12 01:20:13;;;;;;;12.43;9.32;;;19.80;99.90;;;;;;4175292;28;20025;-75
2021/09/12 01:22:13;;;;;;;13.65;9.50;;;19.70;99.90;;;;;;4156894;28;20389;-75
2021/09/12 01:24:14;;;;;;;13.10;9.38;;;19.70;99.90;;;;;;4175859;28;20037;-75
2021/09/12 01:26:23;;;;;;;12.45;9.50;;;19.70;99.90;;;;;;4173712;28;20036;-76
2021/09/12 01:28:24;;;;;;;13.10;9.45;;;19.70;99.90;;;;;;4175150;28;20098;-76
2021/09/12 01:30:24;;;;;;;13.40;9.68;;;19.60;99.90;;;;;;4172876;28;20029;-75
2021/09/12 01:32:25;;;;;;;16.38;10.55;;;19.60;99.90;;;;;;4175267;28;20048;-75
2021/09/12 01:34:25;;;;;;;13.43;10.15;;;19.60;99.90;;;;;;4174425;28;20588;-75
2021/09/12 01:36:29;;;;;;;12.77;10.15;;;19.60;99.90;;;;;;4175485;28;20036;-75
2021/09/12 01:38:29;;;;;;;17.23;10.40;;;19.60;99.90;;;;;;4156963;28;20053;-75
2021/09/12 01:40:30;;;;;;;14.77;10.60;;;19.50;99.90;;;;;;4172499;28;20632;-75
2021/09/12 01:42:31;;;;;;;15.98;10.20;;;19.50;99.90;;;;;;4174784;28;20032;-75
2021/09/12 01:44:31;;;;;;;17.45;11.32;;;19.40;99.90;;;;;;4174584;28;20525;-75
2021/09/12 01:46:33;;;;;;;15.38;11.02;;;19.40;99.90;;;;;;4173278;28;20158;-75
2021/09/12 01:48:33;;;;;;;15.80;11.48;;;19.40;99.90;;;;;;4174519;28;20033;-76
2021/09/12 01:50:34;;;;;;;14.77;10.55;;;19.40;99.90;;;;;;4174511;28;20036;-75
2021/09/12 01:52:34;;;;;;;16.00;10.25;;;19.40;99.90;;;;;;4175190;28;20033;-75
2021/09/12 01:54:35;;;;;;;14.18;11.13;;;19.40;99.90;;;;;;4174648;28;20048;-75
2021/09/12 01:56:35;;;;;;;14.50;11.20;;;19.40;99.90;;;;;;4174832;28;20239;-75
2021/09/12 01:58:36;;;;;;;15.90;10.95;;;19.30;99.90;;;;;;4174415;28;20653;-75
2021/09/12 02:00:37;;;;;;;16.33;11.43;;;19.30;99.90;;;;;;4172892;28;20537;-75
2021/09/12 02:02:37;;;;;;;18.38;12.23;;;19.30;99.90;;;;;;4173314;28;20090;-75
2021/09/12 02:04:38;;;;;;;14.70;11.73;;;19.30;99.90;;;;;;4172586;28;20554;-75
2021/09/12 02:06:38;;;;;;;18.58;11.68;;;19.30;99.90;;;;;;4172572;28;20035;-75
2021/09/12 02:08:39;;;;;;;15.43;11.05;;;19.20;99.90;;;;;;4172846;28;20025;-75
2021/09/12 02:10:40;;;;;;;16.70;11.40;;;19.30;99.90;;;;;;4174387;28;20029;-75
2021/09/12 02:12:40;;;;;;;23.83;11.68;;;19.20;99.90;;;;;;4156217;28;20067;-76
2021/09/12 02:14:41;;;;;;;14.55;10.05;;;19.20;99.90;;;;;;4174225;28;20033;-75
2021/09/12 02:16:42;;;;;;;17.83;11.95;;;19.20;99.90;;;;;;4172326;28;20036;-76
2021/09/12 02:18:42;;;;;;;18.70;10.90;;;19.20;99.90;;;;;;4173909;28;20102;-75
2021/09/12 02:20:43;;;;;;;20.20;11.90;;;19.20;99.90;;;;;;4172465;28;20507;-75
2021/09/12 02:22:43;;;;;;;19.23;12.35;;;19.20;99.90;;;;;;4173734;28;20031;-75
2021/09/12 02:24:44;;;;;;;18.00;11.60;;;19.20;99.90;;;;;;4171982;28;20025;-75
2021/09/12 02:26:44;;;;;;;15.15;10.73;;;19.20;99.90;;;;;;4172254;28;20040;-76
2021/09/12 02:28:45;;;;;;;13.48;11.00;;;19.20;99.90;;;;;;4172611;28;20080;-76
2021/09/12 02:30:46;;;;;;;14.63;10.68;;;19.20;99.90;;;;;;4174002;28;20527;-75
2021/09/12 02:32:47;;;;;;;16.48;11.50;;;19.20;99.90;;;;;;4173691;28;20552;-75
2021/09/12 02:34:47;;;;;;;15.02;11.10;;;19.20;99.90;;;;;;4174251;28;20029;-75
2021/09/12 02:36:48;;;;;;;15.20;9.98;;;19.20;99.90;;;;;;4174136;28;20033;-75
2021/09/12 02:38:48;;;;;;;15.38;10.55;;;19.20;99.90;;;;;;4172353;28;20523;-75
2021/09/12 02:40:49;;;;;;;19.60;10.90;;;19.20;99.90;;;;;;4173493;28;20047;-75
2021/09/12 02:42:50;;;;;;;14.45;10.40;;;19.10;99.90;;;;;;4172253;28;20753;-75
2021/09/12 02:44:50;;;;;;;13.30;10.63;;;19.10;99.90;;;;;;4171954;28;20710;-75
2021/09/12 02:46:51;;;;;;;18.50;9.57;;;19.10;99.90;;;;;;4172185;28;20114;-75
2021/09/12 02:48:51;;;;;;;10.95;8.88;;;19.00;99.90;;;;;;4171940;28;20594;-75
2021/09/12 02:50:52;;;;;;;10.80;9.00;;;19.00;99.90;;;;;;4171596;28;20544;-75
2021/09/12 02:52:53;;;;;;;11.98;8.13;;;19.10;99.90;;;;;;4173820;28;20648;-75
2021/09/12 02:54:53;;;;;;;10.23;8.35;;;19.10;99.90;;;;;;4173414;28;20033;-75
2021/09/12 02:56:54;;;;;;;11.73;8.43;;;19.10;99.90;;;;;;4173443;28;20033;-76
2021/09/12 02:58:54;;;;;;;10.95;7.78;;;19.10;99.90;;;;;;4173207;28;20040;-75
2021/09/12 03:00:55;;;;;;;12.02;8.48;;;19.10;99.90;;;;;;4153847;28;20017;-75
2021/09/12 03:02:56;;;;;;;12.93;8.80;;;19.10;99.90;;;;;;4173639;28;20021;-75
2021/09/12 03:04:57;;;;;;;12.52;9.45;;;19.10;99.90;;;;;;4173566;28;20033;-76
2021/09/12 03:06:57;;;;;;;13.07;8.25;;;19.10;99.90;;;;;;4173234;28;20492;-76
2021/09/12 03:08:58;;;;;;;12.70;8.65;;;19.10;99.90;;;;;;4173222;28;20024;-75
2021/09/12 03:10:59;;;;;;;11.55;7.63;;;19.10;99.90;;;;;;4173153;28;20228;-75
2021/09/12 03:12:59;;;;;;;12.50;7.80;;;19.10;99.90;;;;;;4173817;28;20641;-75
2021/09/12 03:15:00;;;;;;;13.73;8.77;;;19.10;99.90;;;;;;4174984;28;20040;-75
2021/09/12 03:17:00;;;;;;;11.07;8.07;;;19.10;99.90;;;;;;4175496;28;20039;-75
2021/09/12 03:19:02;;;;;;;14.70;8.77;;;19.00;99.90;;;;;;4171561;28;20040;-75
2021/09/12 03:21:02;;;;;;;12.65;7.53;;;19.00;99.90;;;;;;4171624;28;20545;-76
2021/09/12 03:23:03;;;;;;;10.43;7.70;;;19.00;99.90;;;;;;4173695;28;20030;-75
2021/09/12 03:25:06;;;;;;;10.70;7.70;;;19.00;99.90;;;;;;4172149;28;20021;-76
2021/09/12 03:27:07;;;;;;;11.27;7.15;;;19.00;99.90;;;;;;4173514;28;20094;-75
2021/09/12 03:29:07;;;;;;;11.20;8.35;;;19.00;99.90;;;;;;4173941;28;20144;-76
2021/09/12 03:31:08;;;;;;;9.32;7.35;;;19.00;99.90;;;;;;4173413;28;20668;-75
2021/09/12 03:33:09;;;;;;;10.82;6.63;;;18.90;99.90;;;;;;4171407;28;20134;-75
2021/09/12 03:35:10;;;;;;;9.32;7.03;;;18.90;99.90;;;;;;4173319;28;20029;-76
2021/09/12 03:37:10;;;;;;;10.90;7.53;;;18.90;99.90;;;;;;4171413;28;20029;-76
2021/09/12 03:39:11;;;;;;;9.60;6.88;;;18.90;99.90;;;;;;4170908;28;20497;-75
2021/09/12 03:41:11;;;;;;;9.23;6.80;;;18.80;99.90;;;;;;4172668;28;20488;-75
2021/09/12 03:43:12;;;;;;;9.60;7.15;;;18.80;99.90;;;;;;4173238;28;20032;-75
2021/09/12 03:45:13;;;;;;;10.15;6.53;;;18.80;99.90;;;;;;4171887;28;20098;-75
2021/09/12 03:47:14;;;;;;;11.43;6.85;;;18.80;99.90;;;;;;4173437;28;20033;-76
2021/09/12 03:49:14;;;;;;;12.50;6.90;;;18.80;99.90;;;;;;4173157;28;20025;-75
2021/09/12 03:51:15;;;;;;;8.45;6.38;;;18.80;99.90;;;;;;4172981;28;20124;-75
2021/09/12 03:53:16;;;;;;;13.50;7.03;;;18.80;99.90;;;;;;4172824;28;20037;-75
2021/09/12 03:55:16;;;;;;;8.55;6.57;;;18.80;99.90;;;;;;4173433;28;20036;-75
2021/09/12 03:57:17;;;;;;;11.18;6.63;;;18.80;99.90;;;;;;4173081;28;20087;-75
2021/09/12 03:59:17;;;;;;;11.57;7.57;;;18.70;99.90;;;;;;4171170;28;20637;-75
2021/09/12 04:01:18;;;;;;;10.90;6.97;;;18.70;99.90;;;;;;4172977;28;20715;-75
2021/09/12 04:03:19;;;;;;;12.25;6.22;;;18.60;99.90;;;;;;4172877;28;20407;-75
2021/09/12 04:05:19;;;;;;;12.82;6.53;;;18.50;99.90;;;;;;4171205;28;20052;-75
2021/09/12 04:07:20;;;;;;;9.05;6.18;;;18.50;99.90;;;;;;4170828;28;20029;-75
2021/09/12 04:09:20;;;;;;;8.73;5.80;;;18.50;99.90;;;;;;4173238;28;20053;-75
2021/09/12 04:11:21;;;;;;;9.90;6.38;;;18.50;99.90;;;;;;4172908;28;20025;-75
2021/09/12 04:13:22;;;;;;;9.35;5.97;;;18.50;99.90;;;;;;4173929;28;20040;-75
2021/09/12 04:15:22;;;;;;;9.35;6.50;;;18.40;99.90;;;;;;4175205;28;20103;-75
2021/09/12 04:17:23;;;;;;;11.52;5.65;;;18.30;99.90;;;;;;4157751;28;20041;-75
2021/09/12 04:19:23;;;;;;;9.25;6.18;;;18.30;99.90;;;;;;4181282;28;20041;-75
2021/09/12 04:21:24;;;;;;;6.63;5.20;;;18.30;99.90;;;;;;4174210;28;20112;-75
2021/09/12 04:23:25;;;;;;;10.48;6.07;;;18.30;99.90;;;;;;4175576;28;20029;-75
2021/09/12 04:25:25;;;;;;;10.13;6.10;;;18.30;99.90;;;;;;4174313;28;20055;-74
2021/09/12 04:27:26;;;;;;;7.47;5.68;;;18.30;99.90;;;;;;4176024;28;20671;-75
2021/09/12 04:29:26;;;;;;;8.55;5.65;;;18.20;99.90;;;;;;4175722;28;20074;-75
2021/09/12 04:31:28;;;;;;;8.35;4.93;;;18.20;99.90;;;;;;4175321;28;20029;-75
2021/09/12 04:33:29;;;;;;;14.73;6.13;;;18.20;99.90;;;;;;4174297;28;20029;-76
2021/09/12 04:35:29;;;;;;;7.90;4.97;;;18.20;99.90;;;;;;4176036;28;20130;-75
2021/09/12 04:37:30;;;;;;;7.50;5.30;;;18.30;99.90;;;;;;4175726;28;20052;-75
2021/09/12 04:39:30;;;;;;;9.65;5.15;;;18.30;99.90;;;;;;4175338;28;20036;-75
2021/09/12 04:41:31;;;;;;;7.32;4.57;;;18.20;99.90;;;;;;4173935;28;20070;-75
2021/09/12 04:43:31;;;;;;;7.65;5.20;;;18.30;99.90;;;;;;4173903;28;20505;-75
2021/09/12 04:45:32;;;;;;;7.60;5.00;;;18.20;99.90;;;;;;4175768;28;20040;-75
2021/09/12 04:47:33;;;;;;;6.70;5.22;;;18.20;99.90;;;;;;4175346;28;20464;-75
2021/09/12 04:49:33;;;;;;;8.02;5.03;;;18.10;99.90;;;;;;4174029;28;20135;-75
2021/09/12 04:51:34;;;;;;;6.72;4.72;;;18.10;99.90;;;;;;4175776;28;20487;-75
2021/09/12 04:53:35;;;;;;;6.03;4.50;;;18.10;99.90;;;;;;4173882;28;20022;-75
2021/09/12 04:55:35;;;;;;;8.15;4.65;;;18.10;99.90;;;;;;4175197;28;20037;-75
2021/09/12 04:57:36;;;;;;;9.13;5.75;;;18.10;99.90;;;;;;4173886;28;20039;-75
2021/09/12 04:59:37;;;;;;;6.20;4.65;;;18.00;99.90;;;;;;4175740;28;20040;-75
2021/09/12 05:01:37;;;;;;;8.98;5.00;;;18.00;99.90;;;;;;4174429;28;20029;-75
2021/09/12 05:03:38;;;;;;;7.18;4.60;;;18.00;99.90;;;;;;4156555;28;20026;-75
2021/09/12 05:05:38;;;;;;;8.52;4.25;;;18.00;99.90;;;;;;4174937;28;20538;-76
2021/09/12 05:07:39;;;;;;;8.93;5.05;;;18.00;99.90;;;;;;4174997;28;20120;-76
2021/09/12 05:09:40;;;;;;;7.45;4.97;;;18.00;99.90;;;;;;4156928;28;20033;-75
2021/09/12 05:11:40;;;;;;;6.65;4.25;;;17.90;99.90;;;;;;4175066;28;20025;-75
2021/09/12 05:13:41;;;;;;;6.57;4.60;;;18.00;99.90;;;;;;4173418;28;20040;-76
2021/09/12 05:15:44;;;;;;;8.30;4.70;;;18.00;99.90;;;;;;4175469;28;20037;-75
2021/09/12 05:17:45;;;;;;;8.93;4.57;;;17.90;99.90;;;;;;4173514;28;20500;-74
2021/09/12 05:19:47;;;;;;;6.30;4.10;;;17.90;99.90;;;;;;4173607;28;20060;-75
2021/09/12 05:21:47;;;;;;;5.70;3.85;;;17.90;99.90;;;;;;4174935;28;20029;-75
2021/09/12 05:23:48;;;;;;;7.10;3.72;;;17.90;99.90;;;;;;4150579;28;20152;-75
2021/09/12 05:25:50;;;;;;;8.95;5.10;;;17.90;99.90;;;;;;4174919;28;20025;-75
2021/09/12 05:27:51;;;;;;;6.68;4.38;;;17.80;99.90;;;;;;4175076;28;20030;-75
2021/09/12 05:29:51;;;;;;;7.63;4.35;;;17.80;99.90;;;;;;4173430;28;20544;-75
2021/09/12 05:31:52;;;;;;;7.32;3.67;;;17.70;99.90;;;;;;4175584;28;20036;-75
2021/09/12 05:33:52;;;;;;;6.65;4.10;;;17.70;99.90;;;;;;4173795;28;20100;-75
2021/09/12 05:35:53;;;;;;;7.63;4.13;;;17.70;99.90;;;;;;4171313;28;20557;-75
2021/09/12 05:37:53;;;;;;;7.88;4.10;;;17.70;99.90;;;;;;4172932;28;20477;-75
2021/09/12 05:39:54;;;;;;;8.82;4.25;;;17.70;99.90;;;;;;4173803;28;20064;-75
2021/09/12 05:41:55;;;;;;;5.28;3.92;;;17.70;99.90;;;;;;4173425;28;20025;-75
2021/09/12 05:43:55;;;;;;;8.27;4.35;;;17.70;99.90;;;;;;4173737;28;20032;-75
2021/09/12 05:45:56;;;;;;;8.85;4.40;;;17.70;99.90;;;;;;4174263;28;20025;-76
2021/09/12 05:47:56;;;;;;;9.00;3.80;;;17.60;99.90;;;;;;4173474;28;20033;-76
2021/09/12 05:49:57;;;;;;;9.60;4.10;;;17.60;99.90;;;;;;4173375;28;20037;-76
2021/09/12 05:51:58;;;;;;;5.53;3.40;;;17.60;99.90;;;;;;4173142;28;20166;-75
2021/09/12 05:53:58;;;;;;;10.98;3.97;;;17.60;99.90;;;;;;4173291;28;20041;-76
2021/09/12 05:55:59;;;;;;;6.47;3.67;;;17.60;99.90;;;;;;4173954;28;20063;-76
2021/09/12 05:58:00;;;;;;;7.18;3.83;;;17.50;99.90;;;;;;4171683;28;20028;-76
2021/09/12 06:00:01;;;;;;;7.30;3.85;;;17.50;99.90;;;;;;4173765;28;20048;-76
2021/09/12 06:02:02;;;;;;;7.88;3.50;;;17.50;99.90;;;;;;4171355;28;20124;-75
2021/09/12 06:04:03;;;;;;;5.95;3.20;;;17.50;99.90;;;;;;4156054;28;20030;-76
2021/09/12 06:06:03;;;;;;;6.30;3.78;;;17.50;99.90;;;;;;4170598;28;20033;-76
2021/09/12 06:08:04;;;;;;;6.13;3.45;;;17.50;99.90;;;;;;4167462;28;20465;-75
2021/09/12 06:10:05;;;;;;;10.18;3.47;;;17.60;99.90;;;;;;4170773;28;20056;-75
2021/09/12 06:12:07;;;;;;;8.93;3.40;;;17.60;99.90;;;;;;4173861;28;20043;-76
2021/09/12 06:14:08;;;;;;;9.02;3.55;;;17.60;99.90;;;;;;4171852;28;20083;-76
2021/09/12 06:16:09;;;;;;;5.50;3.47;;;17.60;99.90;;;;;;4167939;28;20513;-76
2021/09/12 06:18:09;;;;;;;5.63;3.05;;;17.60;99.90;;;;;;4173403;28;20481;-76
2021/09/12 06:20:11;;;;;;;5.75;3.50;;;17.60;99.90;;;;;;4171357;28;20044;-76
2021/09/12 06:22:12;;;;;;;5.30;3.05;;;17.70;99.90;;;;;;4173207;28;20576;-76
2021/09/12 06:24:12;;;;;;;7.00;3.47;;;17.60;99.90;;;;;;4152110;28;20037;-75
2021/09/12 06:26:13;;;;;;;4.68;3.08;;;17.70;99.90;;;;;;4167951;28;20049;-75
2021/09/12 06:28:13;;;;;;;6.47;3.35;;;17.60;99.90;;;;;;4172050;28;20037;-75
2021/09/12 06:30:17;;;;;;;4.43;3.17;;;17.70;99.90;;;;;;4171357;28;20033;-76
2021/09/12 06:32:17;;;;;;;6.65;3.90;;;17.70;99.90;;;;;;4172026;28;20040;-74
2021/09/12 06:34:18;;;;;;;8.07;3.13;;;17.60;99.90;;;;;;4172810;28;20020;-76
2021/09/12 06:36:19;;;;;;;5.57;3.17;;;17.70;99.90;;;;;;4172682;28;20049;-76
2021/09/12 06:38:20;;;;;;;6.65;3.08;;;17.70;99.90;;;;;;4175682;28;20033;-73
2021/09/12 06:40:23;;;;;;;4.72;3.20;;;17.70;99.90;;;;;;4173812;28;20497;-74
2021/09/12 06:42:25;;;;;;;9.18;3.30;;;17.70;99.90;;;;;;4173673;28;20041;-73
2021/09/12 06:44:26;;;;;;;7.15;3.65;;;17.60;99.90;;;;;;4173112;28;20036;-73
2021/09/12 06:46:27;;;;;;;6.15;3.03;;;17.60;99.90;;;;;;4174331;28;20464;-73
2021/09/12 06:48:27;;;;;;;6.32;3.38;;;17.60;99.90;;;;;;4177581;28;20029;-73
2021/09/12 06:50:29;;;;;;;7.88;3.05;;;17.60;99.90;;;;;;4156471;28;20029;-73
2021/09/12 06:52:30;;;;;;;12.32;3.13;;;17.60;99.90;;;;;;4170708;28;20045;-73
2021/09/12 06:54:30;;;;;;;6.55;2.95;;;17.60;99.90;;;;;;4172598;28;20033;-73
2021/09/12 06:56:31;;;;;;;3.60;2.65;;;17.60;99.90;;;;;;4173515;28;20037;-73
2021/09/12 06:58:32;;;;;;;6.30;2.83;;;17.60;99.90;;;;;;4173565;28;20029;-73
2021/09/12 07:00:33;;;;;;;3.35;2.60;;;17.60;99.90;;;;;;4168261;28;20154;-73
2021/09/12 07:02:37;;;;;;;6.53;3.15;;;17.60;99.90;;;;;;4171669;28;20037;-73
2021/09/12 07:04:38;;;;;;;6.15;2.80;;;17.70;99.90;;;;;;4166244;28;20692;-73
2021/09/12 07:06:39;;;;;;;5.20;3.00;;;17.70;99.90;;;;;;4172794;28;20465;-73
2021/09/12 07:08:40;;;;;;;6.47;3.20;;;17.70;99.90;;;;;;4173090;28;20120;-73
2021/09/12 07:10:41;;;;;;;3.97;2.75;;;17.70;99.90;;;;;;4174464;28;20424;-73
2021/09/12 07:12:41;;;;;;;6.88;3.22;;;17.70;99.90;;;;;;4175499;28;20060;-73
2021/09/12 07:14:42;;;;;;;3.90;2.55;;;17.70;99.90;;;;;;4174579;28;20025;-73
2021/09/12 07:16:43;;;;;;;5.00;2.67;;;17.80;99.90;;;;;;4171737;28;20120;-73
2021/09/12 07:18:43;;;;;;;4.78;2.80;;;17.80;99.90;;;;;;4172376;28;20061;-73
2021/09/12 07:20:44;;;;;;;6.57;2.95;;;17.80;99.90;;;;;;4173679;28;20114;-73
2021/09/12 07:22:46;;;;;;;4.47;2.63;;;17.80;99.90;;;;;;4174702;28;20033;-73
2021/09/12 07:24:47;;;;;;;;;;;17.80;99.90;;;;;;4175534;28;20796;-73
2021/09/12 07:26:47;;;;;;;5.63;2.63;;;17.90;99.90;;;;;;4174051;28;19920;-73
2021/09/12 07:28:48;;;;;;;2.55;2.22;;;17.80;99.90;;;;;;4175779;28;20061;-73
2021/09/12 07:30:49;;;;;;;5.57;3.30;;;17.80;99.90;;;;;;4175796;28;20627;-73
2021/09/12 07:32:50;;;;;;;7.90;3.45;;;17.80;99.90;;;;;;4177611;28;20033;-72
2021/09/12 07:34:51;;;;;;;7.30;3.53;;;17.80;99.90;;;;;;4177581;28;20040;-72
2021/09/12 07:36:52;;;;;;;5.28;2.85;;;17.80;99.90;;;;;;4176437;28;20048;-73
2021/09/12 07:38:53;;;;;;;6.88;2.97;;;17.90;99.90;;;;;;4173231;28;20037;-73
2021/09/12 07:40:53;;;;;;;5.60;3.35;;;17.80;99.90;;;;;;4173346;28;20458;-73
2021/09/12 07:42:54;;;;;;;4.35;2.67;;;17.80;99.90;;;;;;4172779;28;20098;-73
2021/09/12 07:44:54;;;;;;;6.05;3.38;;;17.90;99.90;;;;;;4175413;28;20059;-73
2021/09/12 07:46:55;;;;;;;4.85;2.45;;;17.90;99.90;;;;;;4174061;28;20029;-73
2021/09/12 07:48:56;;;;;;;10.85;3.05;;;17.90;99.90;;;;;;4177305;28;20033;-73
2021/09/12 07:50:56;;;;;;;6.78;3.28;;;18.00;99.90;;;;;;4178160;28;20411;-73
2021/09/12 07:52:57;;;;;;;5.03;3.22;;;17.90;99.90;;;;;;4179558;28;20114;-73
2021/09/12 07:54:57;;;;;;;6.55;3.15;;;18.00;99.90;;;;;;4160147;28;20053;-74
2021/09/12 07:56:58;;;;;;;6.40;2.47;;;18.00;99.90;;;;;;4175766;28;20103;-73
2021/09/12 07:58:59;;;;;;;6.45;2.40;;;18.00;99.90;;;;;;4175146;28;20037;-73
2021/09/12 08:01:00;;;;;;;5.18;1.98;;;18.00;99.90;;;;;;4178272;28;20025;-73
2021/09/12 08:03:00;;;;;;;4.38;2.15;;;18.10;99.90;;;;;;4173366;28;20041;-74
2021/09/12 08:05:01;;;;;;;3.83;1.75;;;18.10;99.90;;;;;;4178401;28;20041;-73
2021/09/12 08:07:02;;;;;;;7.00;2.47;;;18.20;99.90;;;;;;4178393;28;20716;-73
2021/09/12 08:09:02;;;;;;;6.13;2.13;;;18.20;99.90;;;;;;4178091;28;20033;-73
2021/09/12 08:11:03;;;;;;;7.55;2.40;;;18.30;99.90;;;;;;4176357;28;20037;-73
2021/09/12 08:13:04;;;;;;;4.47;1.70;;;18.30;99.90;;;;;;4179623;28;20044;-72
2021/09/12 08:15:05;;;;;;;8.20;2.17;;;18.40;99.90;;;;;;4162226;28;20041;-72
2021/09/12 08:17:06;;;;;;;3.30;1.60;;;18.50;99.90;;;;;;4181978;28;20050;-72
2021/09/12 08:19:06;;;;;;;3.50;1.45;;;18.60;99.90;;;;;;4185592;28;20071;-72
2021/09/12 08:21:07;;;;;;;2.60;1.60;;;18.60;99.90;;;;;;4180718;28;20088;-72
2021/09/12 08:23:07;;;;;;;6.97;2.15;;;18.70;99.90;;;;;;4181676;28;20049;-73
2021/09/12 08:25:08;;;;;;;4.47;2.30;;;18.70;99.90;;;;;;4176342;28;20044;-73
2021/09/12 08:27:09;;;;;;;3.40;1.70;;;18.70;99.90;;;;;;4177093;28;20033;-73
2021/09/12 08:29:10;;;;;;;4.72;1.90;;;18.70;99.90;;;;;;4178061;28;20039;-73
2021/09/12 08:31:11;;;;;;;4.20;1.67;;;18.70;99.90;;;;;;4176634;28;20117;-73
2021/09/12 08:33:14;;;;;;;3.45;1.48;;;18.80;99.90;;;;;;4178291;28;20049;-73
2021/09/12 08:35:14;;;;;;;3.72;1.70;;;18.80;99.90;;;;;;4176889;28;20029;-73
2021/09/12 08:37:15;;;;;;;3.83;1.90;;;18.90;99.90;;;;;;4178386;28;20403;-73
2021/09/12 08:39:16;;;;;;;3.63;2.00;;;18.90;99.90;;;;;;4176305;28;20040;-73
2021/09/12 08:41:18;;;;;;;2.53;1.63;;;19.00;99.90;;;;;;4174580;28;20052;-73
2021/09/12 08:43:19;;;;;;;5.40;2.03;;;19.00;99.90;;;;;;4181746;28;20396;-73
2021/09/12 08:45:23;;;;;;;5.57;2.13;;;19.10;99.90;;;;;;4172916;28;20029;-73
2021/09/12 08:47:26;;;;;;;3.47;2.00;;;19.20;99.90;;;;;;4160822;28;20029;-73
2021/09/12 08:49:27;;;;;;;2.80;1.60;;;19.20;99.90;;;;;;4158561;28;20501;-73
2021/09/12 08:51:28;;;;;;;5.40;1.80;;;19.30;99.90;;;;;;4179763;28;20045;-73
2021/09/12 08:53:28;;;;;;;4.50;1.80;;;19.30;99.90;;;;;;4176720;28;20033;-73
2021/09/12 08:55:29;;;;;;;5.15;2.35;;;19.30;99.90;;;;;;4177364;28;20033;-73
2021/09/12 08:57:30;;;;;;;4.20;1.80;;;19.40;99.90;;;;;;4177938;28;20060;-73
2021/09/12 08:59:33;;;;;;;4.43;2.03;;;19.40;99.90;;;;;;4175919;28;20044;-73
2021/09/12 09:01:36;;;;;;;6.55;1.65;;;19.40;99.90;;;;;;4174730;28;20120;-73
2021/09/12 09:03:39;;;;;;;2.50;1.40;;;19.50;99.90;;;;;;4180981;28;20629;-73
2021/09/12 09:05:42;;;;;;;4.00;1.60;;;19.60;99.90;;;;;;4172930;28;20041;-73
2021/09/12 09:07:43;;;;;;;2.42;1.33;;;19.60;99.90;;;;;;4177497;28;20516;-74
2021/09/12 09:09:48;;;;;;;3.35;1.52;;;19.60;99.90;;;;;;4177725;28;20071;-74
2021/09/12 09:11:49;;;;;;;4.63;1.70;;;19.80;99.90;;;;;;4172330;28;22668;-74
2021/09/12 09:13:49;;;;;;;3.70;1.80;;;19.80;99.90;;;;;;4180923;28;20577;-74
2021/09/12 09:15:53;;;;;;;2.35;1.33;;;19.80;99.90;;;;;;4173245;28;20045;-74
2021/09/12 09:17:55;;;;;;;4.10;1.40;;;19.90;99.90;;;;;;4174441;28;20164;-74
2021/09/12 09:19:56;;;;;;;3.77;1.40;;;20.00;99.90;;;;;;4176014;28;20041;-74
2021/09/12 09:21:57;;;;;;;2.60;1.60;;;20.10;99.90;;;;;;4179457;28;20282;-74
2021/09/12 09:24:11;;;;;;;3.00;1.48;;;20.20;99.90;;;;;;4177412;28;20029;-74
2021/09/12 09:26:23;;;;;;;3.42;1.58;;;20.20;99.90;;;;;;4179332;28;20139;-74
2021/09/12 09:28:25;;;;;;;3.88;1.40;;;20.40;99.90;;;;;;4174520;28;20077;-74
2021/09/12 09:30:36;;;;;;;1.90;1.48;;;20.50;99.90;;;;;;4175374;28;20079;-74
2021/09/12 09:32:37;;;;;;;2.95;1.55;;;20.50;99.90;;;;;;4172720;28;25023;-74
2021/09/12 09:34:40;;;;;;;2.33;1.70;;;20.50;99.90;;;;;;4181500;28;20082;-74
2021/09/12 09:36:40;;;;;;;2.25;1.20;;;20.60;99.90;;;;;;4176675;28;20041;-73
2021/09/12 09:38:45;;;;;;;4.55;1.55;;;20.70;99.90;;;;;;4176078;28;20040;-74
2021/09/12 09:41:00;;;;;;;2.55;1.30;;;20.80;99.90;;;;;;4177490;28;20468;-74
2021/09/12 09:43:14;;;;;;;2.65;1.45;;;20.90;99.90;;;;;;4171090;28;20090;-74
2021/09/12 09:45:18;;;;;;;4.07;1.42;;;21.00;99.90;;;;;;4179938;28;20103;-74
2021/09/12 09:47:27;;;;;;;4.35;1.50;;;21.00;99.90;;;;;;4176750;28;20545;-74
2021/09/12 09:49:29;;;;;;;6.00;1.92;;;21.00;99.90;;;;;;4172926;28;20029;-74
2021/09/12 09:51:30;;;;;;;4.50;1.70;;;21.00;99.90;;;;;;4174259;28;20094;-73
2021/09/12 09:53:38;;;;;;;3.55;1.60;;;21.00;99.90;;;;;;4176733;28;20068;-74
2021/09/12 09:55:39;;;;;;;2.05;1.27;;;21.00;99.90;;;;;;4178166;28;20059;-74
2021/09/12 09:57:42;;;;;;;3.80;1.67;;;21.00;99.90;;;;;;4178833;28;20110;-73
2021/09/12 09:59:42;;;;;;;3.00;1.23;;;21.00;99.90;;;;;;4178316;28;20400;-74
2021/09/12 10:01:49;;;;;;;2.35;1.40;;;21.00;99.90;;;;;;4174108;28;20051;-73
2021/09/12 10:03:52;;;;;;;5.55;1.67;;;21.10;99.90;;;;;;4176463;28;20075;-72
2021/09/12 10:05:56;;;;;;;2.60;1.13;;;21.00;99.90;;;;;;4137487;28;20050;-73
2021/09/12 10:07:57;;;;;;;2.55;1.38;;;21.00;99.90;;;;;;4155617;28;20574;-73
2021/09/12 10:09:58;;;;;;;2.50;1.17;;;20.90;99.90;;;;;;4139882;28;20057;-73
2021/09/12 10:12:01;;;;;;;4.25;1.60;;;20.90;99.90;;;;;;4154070;28;20037;-73
2021/09/12 10:14:03;;;;;;;3.45;1.58;;;20.90;99.90;;;;;;4176443;28;20107;-73
2021/09/12 10:16:06;;;;;;;4.78;1.92;;;20.90;99.90;;;;;;4175766;28;20062;-73
2021/09/12 10:18:09;;;;;;;2.38;1.30;;;20.80;99.90;;;;;;4175378;28;20060;-73
2021/09/12 10:20:21;;;;;;;4.15;1.60;;;20.80;99.90;;;;;;4174535;28;20045;-73
2021/09/12 10:22:22;;;;;;;3.78;1.75;;;20.70;99.90;;;;;;4176023;28;20746;-73
2021/09/12 10:24:23;;;;;;;4.50;1.70;;;20.70;99.90;;;;;;4172367;28;20060;-73
2021/09/12 10:26:49;;;;;;;4.85;1.70;;;20.70;99.90;;;;;;4164328;28;20059;-73
2021/09/12 10:28:50;;;;;;;3.85;1.75;;;20.80;99.90;;;;;;4177059;28;20048;-73